メインページ
METAR-TAF:

METAR-TAF

空港 :

Comox, ブリティッシュコロンビア州, カナダ

緯度: 49-43N, 経度: 124-54W, 海抜: 24m

現時点の気象観測

当レポートは36分前の13:00(UTC)に作成
北/北西の風 8kt
気温 12°C
湿度 82%
気圧 1018 hPa
視程: 32.2km
高度21000ftの雲はほとんどない
高度24000ftの雲は散在している

METAR: CYQQ 231300Z 33008KT 20SM FEW210 SCT240 12/09 A3007 RMK CC2CC2 SLP182

時間: 06:36 (13:36 UTC)

予報

当レポートは50分前の12:46(UTC)に作成
予報は23日の 12時(UTC)から 24日の 12時(UTC)まで有効
北/北西の風 8kt
視程: 10km
高度10000ftの雲はほとんどない
高度20000ftの雲は散在している
23日の 18時(UTC)から 23日の 20時(UTC)まで徐々に
北/北東の風 5kt
24日の 0000時(UTC)から
北/北西の風 12kt
視程: 10km
高度10000ftの雲は散在している

TAF: CYQQ 231246Z 2312/2412 33008KT P6SM FEW100 SCT200 BECMG 2318/2320 02005KT FM240000 34012KT P6SM SCT100 RMK NXT FCST BY 231800Z

4,000以上の空港の気象観測と天気予報(METAR報とTAF報)

利用可能な観測所は地図上に黄色い丸と赤い丸で示す。

丸の上にカーソルを重ねると観測所名を参照できる。

次にクリックすると気象観測と天気予報を参照できる。

マップの切り替え:黒色「×」印の緑ボタンをクリックして拡大、「-」印の緑ボタンをクリックして縮小、緑色の三角印をクリックして隣りの地図に切り替え


METAR-TAF: